Newell, SD

11:51 AM MST on February 14, 2016 (GMT -0700)
Black Hills-Ice | | Change Station
CLOSE
Current Station
Airport
Location: Spearfish,
Elevation: 3898 ft
Nearby Weather Stations

Elev 3898 ft 44.48 °N, 103.78 °W | Updated 16 minutes ago

Overcast
Overcast
32 °F
Feels Like 23 °F
N
12
Wind Variable Wind from WNW
Gusts 16 mph

Today
High -- | Low -- °F
--% Chance of Precip.
Yesterday
High -- | Low -- °F
Precip. -- in
Pressure 29.80 in
Visibility -9999.0 miles
Clouds
Windchill 23 °F
Dew Point 32 °F
Humidity 100%
Rainfall 0.84 in
Snow Depth Not available.
6:56 AM 5:20 PM
Waxing Crescent, 44% visible
METAR KSPF 141835Z AUTO 30010G14KT +SN 00/00 A2980 RMK AO2 P0054
Pressure 29.80 in
Visibility -9999.0 miles
Clouds
Windchill 23 °F
Dew Point 32 °F
Humidity 100%
Rainfall 0.84 in
Snow Depth Not available.
6:56 AM 5:20 PM
Waxing Crescent, 44% visible
METAR KSPF 141835Z AUTO 30010G14KT +SN 00/00 A2980 RMK AO2 P0054

10-Day Weather Forecast

Almanac

Astronomy

Feb. 14, 2016 Rise Set
Actual Time
Civil Twilight
Nautical Twilight
Astronomical Twilight
Moon
Length of Visible Light
Length of Day
Tomorrow will be .
, % of the Moon is Illuminated

Today's Extremes

State Highs State Lows

Community

WunderPhotos

Upload Photos

1,892,870 photos uploaded!

WunderBlog® & News

Nearby

Air Quality

  Air Quality AQ Index Pollutant
Not available.

Snow Depth

Station Depth Elevation

Earthquake Activity

City Distance Mag. Time & Date
Minimum magnitude displayed is 2.5.

Coastal Water Temperatures

Place Temperature

Stations

Nearby Weather Stations

Station Location Temp. Windchill Dew Point Humidity Wind Precip. Elev Updated Type
                   

Watches & Warnings

There are currently no watches in effect.